Latest Weather Observations for Mardie

IDW60801

Issued at 9:32 pm WST Friday 3 July 2015 (issued every 30 minutes, with the page automatically refreshed every 10 minutes)

About weather observations | Map of weather stations | Latest weather observations for WA | Other Formats
Station Details ID: 005008 Name: MARDIE Lat: -21.19 Lon: 115.98 Height: 11.0 m
Data from the previous 72 hours. | See also: Recent months at Mardie
Date/Time
WST
Temp
°C
App
Temp
°C
Dew
Point
Rel
Hum
%
Delta-T
°C
Wind Press
QNH
hPa
Press
MSL
hPa
Rain
since 9 am
mm
Dir
 
Spd
km/h
Gust
km/h
Spd
kts
Gust
kts
03/09:30pm 17.0 16.5 12.5 75 2.5 S 7 9 4 5 1019.9 1019.8 0.0
03/09:00pm 17.6 17.3 13.3 76 2.4 SSW 7 9 4 5 1019.9 1019.8 0.0
03/08:30pm 18.6 19.1 14.1 75 2.6 SW 4 6 2 3 1019.6 1019.5 0.0
03/08:00pm 18.9 18.9 14.2 74 2.7 WSW 7 9 4 5 1019.5 1019.4 0.0
03/07:30pm 19.3 18.3 13.5 69 3.3 WSW 11 13 6 7 1019.1 1019.0 0.0
03/07:00pm 20.1 20.2 12.8 63 4.1 W 4 4 2 2 1019.0 1018.9 0.0
03/06:30pm 20.9 20.6 12.6 59 4.7 W 6 7 3 4 1018.7 1018.6 0.0
03/06:00pm 22.1 22.2 12.6 55 5.4 W 4 6 2 3 1018.5 1018.4 0.0
03/05:30pm 24.3 23.6 11.9 45 7.0 W 7 9 4 5 1018.3 1018.2 0.0
03/05:00pm 25.7 23.7 11.5 41 8.0 WNW 13 15 7 8 1018.0 1017.9 0.0
03/04:30pm 26.8 24.7 11.3 38 8.8 NW 13 17 7 9 1017.7 1017.6 0.0
03/04:00pm 27.1 24.2 8.0 30 10.3 NW 13 19 7 10 1017.6 1017.5 0.0
03/03:30pm 27.8 24.8 9.1 31 10.3 NW 15 19 8 10 1017.5 1017.4 0.0
03/03:00pm 28.2 24.6 8.5 29 10.7 WNW 17 22 9 12 1017.7 1017.6 0.0
03/02:30pm 28.8 25.7 9.0 29 10.9 WNW 15 22 8 12 1017.8 1017.7 0.0
03/02:00pm 29.5 27.9 8.0 26 11.7 WNW 6 13 3 7 1017.9 1017.8 0.0
03/01:30pm 29.1 27.6 9.3 29 11.0 W 7 13 4 7 1018.2 1018.1 0.0
03/01:00pm 30.0 26.6 3.9 19 13.3 SSE 11 28 6 15 1018.4 1018.3 0.0
03/12:30pm 29.7 25.5 3.6 19 13.2 E 15 28 8 15 1018.9 1018.8 0.0
03/12:00pm 29.5 25.6 3.5 19 13.1 ENE 13 22 7 12 1019.4 1019.3 0.0
03/11:30am 28.8 24.6 3.6 20 12.7 E 15 26 8 14 1019.8 1019.7 0.0
03/11:00am 28.6 24.3 3.5 20 12.6 E 15 22 8 12 1020.1 1020.0 0.0
03/10:30am 27.9 23.1 4.9 23 11.8 E 19 24 10 13 1020.3 1020.2 0.0
03/10:00am 26.7 22.1 5.6 26 10.8 E 19 24 10 13 1020.6 1020.5 0.0
03/09:30am 25.1 20.9 5.8 29 9.9 ESE 17 24 9 13 1020.8 1020.7 0.0
03/09:00am 22.8 19.4 6.1 34 8.4 ESE 13 17 7 9 1020.7 1020.6 0.0
03/08:30am 20.4 18.5 6.7 41 6.9 ESE 6 11 3 6 1020.6 1020.5 0.0
03/08:00am 17.4 16.1 7.5 52 5.0 SE 4 6 2 3 1020.4 1020.3 0.0
03/07:30am 13.9 11.9 7.0 63 3.4 SE 7 9 4 5 1020.1 1020.0 0.0
03/07:00am 12.4 9.5 6.5 67 2.8 SE 11 13 6 7 1019.9 1019.8 0.0
03/06:30am 12.1 9.2 6.4 68 2.7 ESE 11 13 6 7 1019.6 1019.5 0.0
03/06:00am 12.3 9.4 6.6 68 2.7 SE 11 13 6 7 1019.3 1019.2 0.0
03/05:30am - - - - - SE 9 9 5 5 1019.2 1019.1 0.0
03/05:00am 12.5 9.7 6.8 68 2.7 SE 11 11 6 6 1019.0 1018.9 0.0
03/04:30am 12.9 10.5 7.1 68 2.8 SSE 9 9 5 5 1019.0 1018.9 0.0
03/04:00am 13.3 11.0 7.3 67 2.9 SSE 9 11 5 6 1019.1 1019.0 0.0
03/03:30am 13.5 11.5 7.3 66 3.0 SSE 7 9 4 5 1019.2 1019.1 0.0
03/03:00am 14.4 12.1 7.5 63 3.4 SSE 9 13 5 7 1019.4 1019.3 0.0
03/02:30am 13.2 11.0 7.9 70 2.6 SSE 9 13 5 7 1019.5 1019.4 0.0
03/02:00am 13.0 11.7 7.5 69 2.7 SE 4 15 2 8 1019.7 1019.6 0.0
03/01:30am 14.5 13.3 8.2 66 3.2 SE 4 7 2 4 1019.7 1019.6 0.0
03/01:00am 14.6 12.6 8.5 67 3.1 SE 9 13 5 7 1020.1 1020.0 0.0
03/12:30am 15.2 12.8 8.7 65 3.3 SSE 11 15 6 8 1020.2 1020.1 0.0
03/12:00am 15.6 13.0 9.5 67 3.1 SSE 13 15 7 8 1020.6 1020.5 0.0
 
Date/Time
WST
Temp
°C
App
Temp
°C
Dew
Point
Rel
Hum
%
Delta-T
°C
Wind Press
QNH
hPa
Press
MSL
hPa
Rain
since 9 am
mm
Dir
 
Spd
km/h
Gust
km/h
Spd
kts
Gust
kts
02/11:30pm 15.1 13.6 9.2 68 3.0 SSE 7 9 4 5 1020.6 1020.5 0.0
02/11:00pm 15.1 13.3 9.5 69 2.9 SSE 9 13 5 7 1020.7 1020.6 0.0
02/10:30pm 15.3 13.1 9.4 68 3.0 SE 11 11 6 6 1020.7 1020.6 0.0
02/10:00pm 16.0 13.9 9.9 67 3.2 SE 11 13 6 7 1020.7 1020.6 0.0
02/09:30pm 17.1 16.3 10.9 67 3.3 N 6 7 3 4 1020.6 1020.5 0.0
02/09:00pm 17.5 16.8 11.3 67 3.4 N 6 7 3 4 1020.5 1020.4 0.0
02/08:30pm 18.0 17.1 11.3 65 3.6 N 7 9 4 5 1020.4 1020.3 0.0
02/08:00pm 18.8 18.0 11.1 61 4.2 NNW 6 6 3 3 1020.2 1020.1 0.0
02/07:30pm 20.3 20.4 12.8 62 4.2 NNW 4 4 2 2 1019.8 1019.7 0.0
02/07:00pm 20.3 19.9 11.0 55 5.1 NNW 4 6 2 3 1019.4 1019.3 0.0
02/06:30pm 21.4 21.9 12.8 58 4.9 NNW 2 4 1 2 1019.1 1019.0 0.0
02/06:00pm 23.0 22.5 12.0 50 6.2 NNW 6 7 3 4 1019.1 1019.0 0.0
02/05:30pm 24.6 23.7 10.8 42 7.7 NNW 6 11 3 6 1018.8 1018.7 0.0
02/05:00pm 26.0 24.0 8.5 33 9.4 N 9 19 5 10 1018.6 1018.5 0.0
02/04:30pm 27.8 24.4 6.0 25 11.4 NNW 13 19 7 10 1018.4 1018.3 0.0
02/04:00pm 28.7 25.0 4.2 21 12.4 N 13 20 7 11 1018.3 1018.2 0.0
02/03:30pm 29.1 25.0 2.4 18 13.2 N 13 22 7 12 1018.3 1018.2 0.0
02/03:00pm 29.3 24.4 1.7 17 13.5 N 17 28 9 15 1018.3 1018.2 0.0
02/02:30pm 29.7 26.1 0.3 15 14.1 NE 9 17 5 9 1018.5 1018.4 0.0
02/02:00pm 29.8 26.7 0.4 15 14.1 E 6 19 3 10 1018.8 1018.7 0.0
02/01:30pm 30.1 26.1 0.6 15 14.2 NNE 11 20 6 11 1019.0 1018.9 0.0
02/01:00pm 30.2 26.0 1.6 16 14.0 ENE 13 22 7 12 1019.3 1019.2 0.0
02/12:30pm 29.6 26.6 2.0 17 13.6 E 7 17 4 9 1019.9 1019.8 0.0
02/12:00pm 29.1 24.3 2.4 18 13.2 E 17 24 9 13 1020.4 1020.3 0.0
02/11:30am 28.4 23.6 2.6 19 12.7 ESE 17 22 9 12 1021.0 1020.9 0.0
02/11:00am 28.0 23.0 3.7 21 12.2 SE 19 24 10 13 1021.4 1021.3 0.0
02/10:30am 27.5 22.1 2.6 20 12.2 SE 20 26 11 14 1021.6 1021.5 0.0
02/10:00am 26.3 21.2 2.9 22 11.4 SE 19 24 10 13 1021.7 1021.6 0.0
02/09:30am 24.5 20.7 3.8 26 10.2 SSE 13 17 7 9 1021.9 1021.8 0.0
02/09:00am 22.0 18.9 3.6 30 8.8 SE 9 11 5 6 1021.9 1021.8 0.0
02/08:30am 20.0 17.3 3.7 34 7.7 SE 7 13 4 7 1021.7 1021.6 0.0
02/08:00am 15.7 13.7 4.4 47 5.3 ESE 4 6 2 3 1021.4 1021.3 0.0
02/07:30am 14.3 11.3 4.0 50 4.7 ESE 9 11 5 6 1021.2 1021.1 0.0
02/07:00am 11.7 8.7 4.0 59 3.4 SE 9 9 5 5 1021.0 1020.9 0.0
02/06:30am 11.4 8.8 4.2 61 3.2 SE 7 11 4 6 1020.8 1020.7 0.0
02/06:00am 12.3 9.3 4.3 58 3.6 SE 9 11 5 6 1020.4 1020.3 0.0
02/05:30am 12.9 10.4 4.6 57 3.8 SE 7 7 4 4 1020.3 1020.2 0.0
02/05:00am 13.1 9.9 5.0 58 3.7 SE 11 13 6 7 1020.2 1020.1 0.0
02/04:30am 12.4 9.4 5.8 64 3.1 SE 11 13 6 7 1020.3 1020.2 0.0
02/04:00am 12.9 10.9 7.1 68 2.8 ESE 7 11 4 6 1020.5 1020.4 0.0
02/03:30am 12.8 9.5 7.9 72 2.4 SSE 15 17 8 9 1020.4 1020.3 0.0
02/03:00am 12.1 9.5 7.6 74 2.2 S 11 13 6 7 1020.4 1020.3 0.0
02/02:30am 12.6 10.0 7.9 73 2.3 S 11 13 6 7 1020.8 1020.7 0.0
02/02:00am 12.9 11.1 7.8 71 2.5 SSE 7 9 4 5 1020.9 1020.8 0.0
02/01:30am 14.1 12.2 7.6 65 3.2 SE 7 9 4 5 1020.9 1020.8 0.0
02/01:00am 14.6 12.0 7.6 63 3.4 SE 11 13 6 7 1021.1 1021.0 0.0
02/12:30am 14.2 11.8 7.0 62 3.5 SE 9 9 5 5 1021.2 1021.1 0.0
02/12:00am 14.5 12.2 7.5 63 3.4 SE 9 13 5 7 1021.3 1021.2 0.0
 
Date/Time
WST
Temp
°C
App
Temp
°C
Dew
Point
Rel
Hum
%
Delta-T
°C
Wind Press
QNH
hPa
Press
MSL
hPa
Rain
since 9 am
mm
Dir
 
Spd
km/h
Gust
km/h
Spd
kts
Gust
kts
01/11:30pm 13.9 11.4 8.3 69 2.8 SE 11 13 6 7 1021.4 1021.3 0.0
01/11:00pm 13.9 11.4 8.1 68 2.9 SE 11 13 6 7 1021.6 1021.5 0.0
01/10:30pm 14.4 12.8 8.8 69 2.8 SE 7 7 4 4 1021.6 1021.5 0.0
01/10:00pm 14.9 13.5 9.5 70 2.8 SE 7 7 4 4 1021.6 1021.5 0.0
01/09:30pm 15.4 13.7 10.0 70 2.8 SE 9 11 5 6 1021.4 1021.3 0.0
01/09:00pm 15.7 13.8 10.5 71 2.7 SSE 11 15 6 8 1021.3 1021.2 0.0
01/08:30pm 16.7 16.8 11.6 72 2.8 NW 2 6 1 3 1021.1 1021.0 0.0
01/08:00pm 18.2 17.6 13.5 74 2.7 NW 9 9 5 5 1020.8 1020.7 0.0
01/07:30pm 18.6 18.3 13.2 71 3.1 NNW 7 9 4 5 1020.6 1020.5 0.0
01/07:00pm 19.3 18.5 12.8 66 3.6 NNW 9 13 5 7 1020.4 1020.3 0.0
01/06:30pm 20.2 19.0 10.3 53 5.3 NNW 7 11 4 6 1020.1 1020.0 0.0
01/06:00pm 23.0 20.9 6.7 35 8.4 N 7 9 4 5 1019.9 1019.8 0.0
01/05:30pm 25.1 22.6 4.8 27 10.2 N 7 9 4 5 1019.7 1019.6 0.0
01/05:00pm 27.3 23.2 0.1 17 12.7 NNE 11 17 6 9 1019.5 1019.4 0.0
01/04:30pm 27.9 22.9 -1.1 15 13.4 NNE 15 19 8 10 1019.4 1019.3 0.0
01/04:00pm 28.1 23.6 -0.1 16 13.2 N 13 20 7 11 1019.2 1019.1 0.0
01/03:30pm 28.4 22.8 -2.6 13 14.0 N 17 22 9 12 1019.2 1019.1 0.0
01/03:00pm 28.9 23.4 -2.3 13 14.2 NNE 17 28 9 15 1019.1 1019.0 0.0
01/02:30pm 29.3 23.3 -3.0 12 14.6 NNE 19 30 10 16 1019.0 1018.9 0.0
01/02:00pm 29.4 23.4 -2.9 12 14.6 NNE 19 28 10 15 1019.1 1019.0 0.0
01/01:30pm 29.2 23.2 -3.1 12 14.5 NNE 19 28 10 15 1019.2 1019.1 0.0
01/01:00pm 29.1 23.1 -3.2 12 14.4 NNE 19 30 10 16 1019.5 1019.4 0.0
01/12:30pm 28.7 22.6 -2.4 13 14.1 NE 20 28 11 15 1020.1 1020.0 0.0
01/12:00pm 28.8 22.6 -0.4 15 13.7 ENE 22 33 12 18 1020.6 1020.5 0.0
01/11:30am 27.9 21.7 -0.2 16 13.2 ENE 22 32 12 17 1020.9 1020.8 0.0
01/11:00am 27.3 21.8 1.7 19 12.3 ENE 20 30 11 16 1021.3 1021.2 0.0
01/10:30am 26.8 21.5 2.0 20 12.0 ENE 19 24 10 13 1021.8 1021.7 0.0
01/10:00am 25.3 21.1 3.9 25 10.6 E 15 22 8 12 1021.9 1021.8 0.0
01/09:30am 23.3 19.5 3.8 28 9.5 E 13 17 7 9 1022.0 1021.9 0.0
01/09:00am 21.2 17.7 3.4 31 8.5 ESE 11 15 6 8 1021.8 1021.7 0.0
01/08:30am 18.9 15.7 3.1 35 7.4 ESE 9 13 5 7 1021.5 1021.4 0.0
01/08:00am 15.9 13.2 3.7 44 5.6 SE 7 9 4 5 1021.3 1021.2 0.0
01/07:30am 11.8 9.0 3.3 56 3.7 ESE 7 9 4 5 1021.1 1021.0 0.0
01/07:00am 10.1 6.5 2.7 60 3.2 ESE 11 13 6 7 1020.8 1020.7 0.0
01/06:30am 11.1 7.1 2.7 56 3.6 ESE 13 15 7 8 1020.6 1020.5 0.0
01/06:00am 11.4 7.4 2.9 56 3.7 ESE 13 15 7 8 1020.3 1020.2 0.0
01/05:30am 11.6 7.7 3.4 57 3.6 ESE 13 15 7 8 1020.1 1020.0 0.0
01/05:00am 10.5 7.0 3.5 62 3.1 ESE 11 11 6 6 1020.1 1020.0 0.0
01/04:30am 11.1 7.3 4.1 62 3.1 ESE 13 15 7 8 1020.0 1019.9 0.0
01/04:00am 10.5 6.9 5.1 69 2.4 SE 13 13 7 7 1020.1 1020.0 0.0
01/03:30am 11.5 8.1 5.8 68 2.7 SSE 13 13 7 7 1020.3 1020.2 0.0
01/03:00am 11.6 8.5 5.7 67 2.7 SE 11 13 6 7 1020.4 1020.3 0.0
01/02:30am 11.9 9.6 5.8 66 2.8 SE 7 9 4 5 1020.6 1020.5 0.0
01/02:00am 12.2 9.7 6.5 68 2.7 SSE 9 11 5 6 1020.8 1020.7 0.0
01/01:30am 11.9 9.9 6.2 68 2.7 S 6 7 3 4 1021.2 1021.1 0.0
01/01:00am 13.3 10.9 7.1 66 3.0 S 9 11 5 6 1021.5 1021.4 0.0
01/12:30am 13.4 10.7 7.4 67 2.9 S 11 13 6 7 1021.4 1021.3 0.0
01/12:00am 13.5 10.9 7.9 69 2.8 S 11 13 6 7 1021.4 1021.3 0.0
 
Date/Time
WST
Temp
°C
App
Temp
°C
Dew
Point
Rel
Hum
%
Delta-T
°C
Wind Press
QNH
hPa
Press
MSL
hPa
Rain
since 9 am
mm
Dir
 
Spd
km/h
Gust
km/h
Spd
kts
Gust
kts
30/11:30pm 13.0 10.6 7.0 67 2.9 S 9 13 5 7 1021.6 1021.5 0.0
30/11:00pm 14.0 12.1 6.6 61 3.6 SSE 6 7 3 4 1021.4 1021.3 0.0
30/10:30pm 14.4 12.8 6.3 58 3.9 SSE 4 6 2 3 1021.6 1021.5 0.0
30/10:00pm 14.1 12.2 6.5 60 3.6 SSE 6 9 3 5 1021.6 1021.5 0.0

Other Formats:

Comma delimited format used in spreadsheet applications
http://www.bom.gov.au/fwo/IDW60801/IDW60801.94306.axf

JavaScript Object Notation format (JSON) in row-major order
http://www.bom.gov.au/fwo/IDW60801/IDW60801.94306.json